createdAt,value
2023-05-20T00:03:25.533Z,32.20
2023-05-20T00:10:30.494Z,32.10
2023-05-20T00:17:58.438Z,32.50
2023-05-20T00:20:30.721Z,28.50
2023-05-20T00:23:02.989Z,38.80
2023-05-20T00:26:16.510Z,53.90
2023-05-20T00:28:51.068Z,33.40
2023-05-20T00:31:29.531Z,29.10
2023-05-20T00:34:04.461Z,28.30
2023-05-20T00:40:00.883Z,22.40
2023-05-20T00:47:04.505Z,23.70
2023-05-20T00:49:37.340Z,24.00
2023-05-20T00:52:17.038Z,23.00
2023-05-20T00:54:51.113Z,21.90
2023-05-20T00:58:26.852Z,20.50
2023-05-20T01:01:07.251Z,23.00
2023-05-20T01:03:39.781Z,28.40
2023-05-20T01:06:11.941Z,17.90
2023-05-20T01:08:44.041Z,21.20
2023-05-20T01:19:46.456Z,17.80
2023-05-20T01:22:35.340Z,21.20
2023-05-20T01:25:08.677Z,20.10
2023-05-20T01:27:49.206Z,17.90
2023-05-20T01:31:25.087Z,21.70
2023-05-20T01:34:05.651Z,17.40
2023-05-20T01:40:28.680Z,17.10
2023-05-20T01:43:02.564Z,16.50
2023-05-20T01:49:29.369Z,14.60
2023-05-20T01:52:01.786Z,17.80
2023-05-20T01:54:41.182Z,15.50
2023-05-20T02:01:46.442Z,15.80
2023-05-20T02:04:25.285Z,18.10
2023-05-20T02:06:57.536Z,14.70
2023-05-20T02:09:36.538Z,13.80
2023-05-20T02:16:41.425Z,19.00
2023-05-20T02:23:37.724Z,17.90
2023-05-20T02:30:04.321Z,14.50
2023-05-20T02:37:09.384Z,17.70
2023-05-20T02:39:49.401Z,15.50
2023-05-20T02:42:21.837Z,24.80
2023-05-20T02:44:56.676Z,21.00
2023-05-20T02:48:31.642Z,20.10
2023-05-20T02:51:10.356Z,23.10
2023-05-20T02:53:42.706Z,22.20
2023-05-20T03:00:43.671Z,18.70
2023-05-20T03:03:17.288Z,18.30
2023-05-20T03:05:50.257Z,19.20
2023-05-20T03:08:39.743Z,19.60
2023-05-20T03:27:58.833Z,32.80
2023-05-20T03:43:12.555Z,28.30
2023-05-20T03:46:42.419Z,27.80
2023-05-20T03:49:14.797Z,24.60
2023-05-20T03:51:47.039Z,32.80
2023-05-20T03:54:28.471Z,30.80
2023-05-20T04:01:27.374Z,23.20
2023-05-20T04:03:59.711Z,28.20
2023-05-20T04:24:25.320Z,23.30
2023-05-20T04:27:34.885Z,23.30
2023-05-20T04:33:39.443Z,26.80
2023-05-20T04:39:54.678Z,26.40
2023-05-20T04:42:33.822Z,31.70
2023-05-20T04:45:08.897Z,32.50
2023-05-20T04:48:26.771Z,28.70
2023-05-20T04:51:01.469Z,28.50
2023-05-20T04:53:36.228Z,34.80
2023-05-20T04:56:15.731Z,30.00
2023-05-20T04:58:48.706Z,26.20
2023-05-20T05:01:21.165Z,24.50
2023-05-20T05:03:54.476Z,30.40
2023-05-20T05:06:26.605Z,34.60
2023-05-20T05:08:58.826Z,28.10
2023-05-20T05:11:39.220Z,56.40
2023-05-20T05:14:17.844Z,47.10
2023-05-20T05:16:57.438Z,47.50
2023-05-20T05:19:29.788Z,35.90
2023-05-20T05:22:08.517Z,49.90
2023-05-20T05:25:14.812Z,43.50
2023-05-20T05:27:49.301Z,31.20
2023-05-20T05:30:41.673Z,29.80
2023-05-20T05:37:28.335Z,29.40
2023-05-20T05:40:00.579Z,25.50
2023-05-20T05:42:33.615Z,29.10
2023-05-20T05:45:38.641Z,28.10
2023-05-20T05:48:11.627Z,33.60
2023-05-20T05:50:47.201Z,27.30
2023-05-20T05:57:56.982Z,31.80
2023-05-20T06:00:29.400Z,31.70
2023-05-20T06:07:03.599Z,27.90
2023-05-20T06:09:36.527Z,32.10
2023-05-20T06:12:10.537Z,23.00
2023-05-20T06:15:08.147Z,25.10
2023-05-20T06:17:51.790Z,28.20
2023-05-20T06:23:57.598Z,21.30
2023-05-20T06:30:06.170Z,22.30
2023-05-20T06:33:11.722Z,24.00
2023-05-20T06:35:44.308Z,30.50
2023-05-20T06:42:37.554Z,22.80
2023-05-20T06:48:44.698Z,27.20
2023-05-20T06:57:45.018Z,24.10
2023-05-20T07:00:18.704Z,27.50
2023-05-20T07:02:50.919Z,24.40
2023-05-20T07:08:55.644Z,27.90
2023-05-20T07:11:28.102Z,33.60
2023-05-20T07:14:06.676Z,53.30
2023-05-20T07:17:12.396Z,30.90
2023-05-20T07:19:50.549Z,28.10
2023-05-20T07:22:23.096Z,51.90
2023-05-20T07:25:44.931Z,36.70
2023-05-20T07:33:55.724Z,30.40
2023-05-20T07:36:34.975Z,33.10
2023-05-20T07:39:33.824Z,33.10
2023-05-20T07:42:06.393Z,29.00
2023-05-20T07:44:39.075Z,31.90
2023-05-20T07:50:51.731Z,31.70
2023-05-20T07:53:25.167Z,47.20
2023-05-20T07:55:57.821Z,33.80
2023-05-20T08:03:14.596Z,32.80
2023-05-20T08:06:21.618Z,33.60
2023-05-20T08:08:54.554Z,32.00
2023-05-20T08:11:30.964Z,39.40
2023-05-20T08:14:03.604Z,34.40
2023-05-20T08:16:49.035Z,37.90
2023-05-20T08:19:21.999Z,31.20
2023-05-20T08:25:41.067Z,29.20
2023-05-20T08:28:13.526Z,33.10
2023-05-20T08:35:24.615Z,46.10
2023-05-20T08:38:43.686Z,48.60
2023-05-20T08:46:03.664Z,50.80
2023-05-20T08:49:20.838Z,34.20
2023-05-20T08:51:53.093Z,26.30
2023-05-20T08:58:43.167Z,28.80
2023-05-20T09:05:46.864Z,24.50
2023-05-20T09:12:39.674Z,31.80
2023-05-20T09:15:13.045Z,26.40
2023-05-20T09:17:51.187Z,25.10
2023-05-20T09:20:49.728Z,22.80
2023-05-20T09:27:31.002Z,21.60
2023-05-20T09:30:25.995Z,29.10
2023-05-20T09:33:07.946Z,23.70
2023-05-20T09:44:01.022Z,24.10
2023-05-20T09:47:11.200Z,23.70
2023-05-20T09:49:45.011Z,21.00
2023-05-20T09:52:20.771Z,30.70
2023-05-20T09:55:41.412Z,23.90
2023-05-20T09:59:02.383Z,26.80
2023-05-20T10:06:26.991Z,22.70
2023-05-20T10:20:51.602Z,25.60
2023-05-20T10:32:32.561Z,21.30
2023-05-20T10:35:17.039Z,24.90
2023-05-20T10:38:17.700Z,24.50
2023-05-20T10:45:13.350Z,19.70
2023-05-20T10:52:10.311Z,20.80
2023-05-20T10:55:43.397Z,24.10
2023-05-20T10:59:10.142Z,22.30
2023-05-20T11:02:07.879Z,21.10
2023-05-20T11:04:48.277Z,20.30
2023-05-20T11:12:39.300Z,22.00
2023-05-20T11:15:18.599Z,20.70
2023-05-20T11:18:24.322Z,19.90
2023-05-20T11:20:56.809Z,20.80
2023-05-20T11:23:31.979Z,20.40
2023-05-20T11:26:50.889Z,20.10
2023-05-20T11:29:30.542Z,18.80
2023-05-20T11:32:04.367Z,18.00
2023-05-20T11:34:54.650Z,23.80
2023-05-20T11:37:41.883Z,23.40
2023-05-20T11:43:48.067Z,22.20
2023-05-20T11:51:31.500Z,26.00
2023-05-20T11:54:04.816Z,22.60
2023-05-20T11:56:38.722Z,23.20
2023-05-20T11:59:11.405Z,21.20
2023-05-20T12:02:15.964Z,21.10
2023-05-20T12:04:48.959Z,23.00
2023-05-20T12:07:21.546Z,27.10
2023-05-20T12:13:27.352Z,20.90
2023-05-20T12:15:59.571Z,25.50
2023-05-20T12:19:09.529Z,21.60
2023-05-20T12:24:55.469Z,29.70
2023-05-20T12:27:28.275Z,21.30
2023-05-20T12:31:02.678Z,20.30
2023-05-20T12:33:34.976Z,21.40
2023-05-20T12:36:17.029Z,22.00
2023-05-20T12:42:18.080Z,23.20
2023-05-20T12:44:57.001Z,21.90
2023-05-20T12:47:30.691Z,21.10
2023-05-20T12:50:38.369Z,20.20
2023-05-20T12:53:10.547Z,23.50
2023-05-20T12:55:48.928Z,21.00
2023-05-20T12:58:21.210Z,21.50
2023-05-20T13:01:00.337Z,21.30
2023-05-20T13:03:32.666Z,21.00
2023-05-20T13:06:10.917Z,20.30
2023-05-20T13:08:43.369Z,21.50
2023-05-20T13:12:10.588Z,20.60
2023-05-20T13:14:42.836Z,21.80
2023-05-20T13:17:27.272Z,21.70
2023-05-20T13:19:59.614Z,19.00
2023-05-20T13:27:05.571Z,20.70
2023-05-20T13:29:44.037Z,18.40
2023-05-20T13:32:16.757Z,19.60
2023-05-20T13:39:54.862Z,17.50
2023-05-20T13:42:29.378Z,16.90
2023-05-20T13:45:47.056Z,18.40
2023-05-20T13:48:49.015Z,23.20
2023-05-20T13:51:21.184Z,23.20
2023-05-20T13:53:53.364Z,22.20
2023-05-20T13:56:38.982Z,19.40
2023-05-20T13:59:11.601Z,17.80
2023-05-20T14:01:45.575Z,18.70
2023-05-20T14:05:04.704Z,16.80
2023-05-20T14:07:36.954Z,18.00
2023-05-20T14:13:34.655Z,17.30
2023-05-20T14:19:40.342Z,17.40
2023-05-20T14:25:27.910Z,16.20
2023-05-20T14:28:00.071Z,16.30
2023-05-20T14:35:26.979Z,16.90
2023-05-20T14:38:30.052Z,26.60
2023-05-20T14:41:11.107Z,19.60
2023-05-20T14:43:43.281Z,14.90
2023-05-20T14:50:48.335Z,16.40
2023-05-20T14:58:16.498Z,14.40
2023-05-20T15:00:48.814Z,13.70
2023-05-20T15:03:21.420Z,17.60
2023-05-20T15:05:53.783Z,14.70
2023-05-20T15:12:58.606Z,18.40
2023-05-20T15:15:37.864Z,75.60
2023-05-20T15:22:31.570Z,20.30
2023-05-20T15:25:03.852Z,16.20
2023-05-20T15:36:02.265Z,17.90
2023-05-20T15:38:34.635Z,19.50
2023-05-20T15:41:08.111Z,16.30
2023-05-20T15:43:40.805Z,16.50
2023-05-20T15:50:17.036Z,17.50
2023-05-20T15:52:49.270Z,19.60
2023-05-20T15:55:23.487Z,21.10
2023-05-20T16:02:58.471Z,22.90
2023-05-20T16:05:33.559Z,39.50
2023-05-20T16:08:12.680Z,16.40
2023-05-20T16:10:44.917Z,16.90
2023-05-20T16:13:23.834Z,18.00
2023-05-20T16:15:59.099Z,16.90
2023-05-20T16:18:31.327Z,17.00
2023-05-20T16:25:04.223Z,16.80
2023-05-20T16:27:36.573Z,16.80
2023-05-20T16:30:16.139Z,23.50
2023-05-20T16:32:48.465Z,22.80
2023-05-20T16:40:00.756Z,19.90
2023-05-20T16:43:25.768Z,16.50
2023-05-20T16:46:04.727Z,17.50
2023-05-20T16:48:37.160Z,16.00
2023-05-20T16:51:58.755Z,16.00
2023-05-20T16:54:31.180Z,19.20
2023-05-20T16:57:05.096Z,15.50
2023-05-20T16:59:41.094Z,16.60
2023-05-20T17:02:34.834Z,18.80
2023-05-20T17:05:08.284Z,20.50
2023-05-20T17:07:49.023Z,18.30
2023-05-20T17:11:06.817Z,25.50
2023-05-20T17:13:45.758Z,24.20
2023-05-20T17:16:18.844Z,18.60
2023-05-20T17:18:58.706Z,18.00
2023-05-20T17:26:05.032Z,20.40
2023-05-20T17:28:43.736Z,22.70
2023-05-20T17:31:15.911Z,21.80
2023-05-20T17:33:55.227Z,20.50
2023-05-20T17:36:32.801Z,21.70
2023-05-20T17:43:03.808Z,20.80
2023-05-20T17:45:38.380Z,23.10
2023-05-20T17:48:11.721Z,18.50
2023-05-20T17:50:50.783Z,18.50
2023-05-20T17:53:22.928Z,23.40
2023-05-20T17:56:02.167Z,19.40
2023-05-20T18:01:16.482Z,20.30
2023-05-20T18:03:49.022Z,22.90
2023-05-20T18:13:59.844Z,22.00
2023-05-20T18:16:49.656Z,20.00
2023-05-20T18:31:20.421Z,19.70
2023-05-20T18:34:43.651Z,25.70
2023-05-20T18:37:23.104Z,22.10
2023-05-20T18:43:07.978Z,39.80
2023-05-20T18:45:42.206Z,32.50
2023-05-20T18:48:26.543Z,37.40
2023-05-20T18:50:59.737Z,30.50
2023-05-20T18:53:32.133Z,29.90
2023-05-20T18:56:07.669Z,26.70
2023-05-20T18:58:40.735Z,26.00
2023-05-20T19:01:15.570Z,22.80
2023-05-20T19:03:50.121Z,28.10
2023-05-20T19:06:23.611Z,25.20
2023-05-20T19:08:55.788Z,26.50
2023-05-20T19:11:27.991Z,26.10
2023-05-20T19:14:00.424Z,28.30
2023-05-20T19:16:32.992Z,28.60
2023-05-20T19:19:06.045Z,20.20
2023-05-20T19:21:41.569Z,23.20
2023-05-20T19:24:13.967Z,18.50
2023-05-20T19:26:47.363Z,14.10
2023-05-20T19:29:21.308Z,16.30
2023-05-20T19:31:53.875Z,14.30
2023-05-20T19:34:26.709Z,16.30
2023-05-20T19:37:00.539Z,13.90
2023-05-20T19:39:32.898Z,13.10
2023-05-20T19:42:05.394Z,13.60
2023-05-20T19:44:37.579Z,14.40
2023-05-20T19:47:09.884Z,15.80
2023-05-20T19:49:42.132Z,16.20
2023-05-20T19:52:14.597Z,13.30
2023-05-20T19:54:46.690Z,14.50
2023-05-20T19:57:19.137Z,12.40
2023-05-20T19:59:53.549Z,12.50
2023-05-20T20:02:25.879Z,15.20
2023-05-20T20:04:59.312Z,13.10
2023-05-20T20:07:32.163Z,13.10
2023-05-20T20:10:04.846Z,12.30
2023-05-20T20:12:37.020Z,13.60
2023-05-20T20:18:43.527Z,19.30
2023-05-20T20:21:16.017Z,12.90
2023-05-20T20:23:52.151Z,17.10
2023-05-20T20:26:31.327Z,13.90
2023-05-20T20:29:44.884Z,16.10
2023-05-20T20:32:53.931Z,13.70
2023-05-20T20:35:26.508Z,15.80
2023-05-20T20:37:58.924Z,15.90
2023-05-20T20:48:34.586Z,15.10
2023-05-20T20:51:07.083Z,16.70
2023-05-20T20:53:41.208Z,13.50
2023-05-20T20:56:13.577Z,14.20
2023-05-20T20:58:46.368Z,15.00
2023-05-20T21:01:18.651Z,17.00
2023-05-20T21:03:56.390Z,19.50
2023-05-20T21:06:28.929Z,15.30
2023-05-20T21:09:02.358Z,15.50
2023-05-20T21:11:36.619Z,16.10
2023-05-20T21:14:09.225Z,17.50
2023-05-20T21:16:42.236Z,16.60
2023-05-20T21:19:43.702Z,18.70
2023-05-20T21:22:18.661Z,13.50
2023-05-20T21:24:52.268Z,13.50
2023-05-20T21:31:01.722Z,14.50
2023-05-20T21:37:33.523Z,15.60
2023-05-20T21:44:27.537Z,18.30
2023-05-20T21:48:21.894Z,14.20
2023-05-20T21:50:56.789Z,20.30
2023-05-20T21:53:29.009Z,19.20
2023-05-20T22:03:08.599Z,27.20
2023-05-20T22:09:26.803Z,32.50
2023-05-20T22:11:59.890Z,19.70
2023-05-20T22:18:54.832Z,15.50
2023-05-20T22:22:20.788Z,16.30
2023-05-20T22:32:58.472Z,17.40
2023-05-20T22:35:46.353Z,13.80
2023-05-20T22:38:19.045Z,15.20
2023-05-20T22:40:51.325Z,14.60
2023-05-20T22:46:43.998Z,15.70
2023-05-20T22:50:02.754Z,16.10
2023-05-20T22:57:00.424Z,15.80
2023-05-20T23:03:18.104Z,15.10
2023-05-20T23:06:01.557Z,16.80
2023-05-20T23:12:08.508Z,14.30
2023-05-20T23:14:40.662Z,16.20
2023-05-20T23:17:12.818Z,16.30
2023-05-20T23:19:45.082Z,15.70
2023-05-20T23:22:57.001Z,19.60
2023-05-20T23:25:29.097Z,16.30
2023-05-20T23:28:01.352Z,14.90
2023-05-20T23:30:40.206Z,17.90
2023-05-20T23:33:13.199Z,17.70
2023-05-20T23:35:45.819Z,17.50
2023-05-20T23:38:18.270Z,17.50
2023-05-20T23:44:25.496Z,21.40
2023-05-20T23:46:57.736Z,18.50
2023-05-20T23:49:29.978Z,19.90
2023-05-20T23:56:35.201Z,19.30
2023-05-20T23:59:07.500Z,19.40
